createdAt,value
2017-07-12T00:01:52.713Z,58.10
2017-07-12T00:04:20.936Z,58.00
2017-07-12T00:06:49.223Z,58.10
2017-07-12T00:09:17.508Z,58.10
2017-07-12T00:11:45.802Z,58.10
2017-07-12T00:14:14.937Z,58.10
2017-07-12T00:16:43.278Z,58.10
2017-07-12T00:19:11.547Z,58.10
2017-07-12T00:21:39.777Z,58.10
2017-07-12T00:24:08.097Z,58.10
2017-07-12T00:26:36.439Z,58.20
2017-07-12T00:29:04.678Z,58.10
2017-07-12T00:31:32.984Z,58.20
2017-07-12T00:34:01.240Z,58.00
2017-07-12T00:36:29.509Z,58.20
2017-07-12T00:38:57.821Z,57.90
2017-07-12T00:41:26.087Z,58.40
2017-07-12T00:43:54.765Z,58.40
2017-07-12T00:46:23.316Z,58.30
2017-07-12T00:48:51.865Z,58.40
2017-07-12T00:51:20.307Z,58.40
2017-07-12T00:53:49.257Z,58.40
2017-07-12T00:56:17.817Z,58.50
2017-07-12T00:58:46.443Z,58.40
2017-07-12T01:01:14.945Z,58.40
2017-07-12T01:03:43.348Z,58.60
2017-07-12T01:06:12.659Z,58.50
2017-07-12T01:08:41.132Z,58.50
2017-07-12T01:11:09.804Z,58.50
2017-07-12T01:13:38.339Z,58.60
2017-07-12T01:16:06.815Z,58.50
2017-07-12T01:18:35.231Z,58.50
2017-07-12T01:21:03.672Z,58.70
2017-07-12T01:23:33.391Z,58.60
2017-07-12T01:26:01.825Z,58.60
2017-07-12T01:28:30.305Z,58.80
2017-07-12T01:30:59.140Z,58.90
2017-07-12T01:33:27.709Z,58.90
2017-07-12T01:35:56.209Z,59.00
2017-07-12T01:38:25.523Z,58.90
2017-07-12T01:40:54.259Z,58.90
2017-07-12T01:43:23.214Z,59.10
2017-07-12T01:45:52.471Z,59.20
2017-07-12T01:48:21.825Z,59.20
2017-07-12T01:50:50.490Z,59.20
2017-07-12T01:53:19.388Z,59.00
2017-07-12T01:55:48.136Z,59.10
2017-07-12T01:58:16.594Z,59.10
2017-07-12T02:00:44.885Z,59.10
2017-07-12T02:03:13.182Z,58.90
2017-07-12T02:05:41.489Z,58.70
2017-07-12T02:08:09.773Z,58.80
2017-07-12T02:10:38.049Z,58.90
2017-07-12T02:13:07.181Z,59.00
2017-07-12T02:15:35.450Z,59.00
2017-07-12T02:18:04.536Z,59.40
2017-07-12T02:20:32.810Z,59.40
2017-07-12T02:23:01.063Z,59.60
2017-07-12T02:25:29.349Z,59.70
2017-07-12T02:27:57.609Z,59.70
2017-07-12T02:30:25.873Z,59.80
2017-07-12T02:32:54.215Z,59.90
2017-07-12T02:35:22.491Z,60.10
2017-07-12T02:37:50.731Z,60.00
2017-07-12T02:40:19.009Z,60.00
2017-07-12T02:42:47.285Z,60.00
2017-07-12T02:45:16.352Z,60.30
2017-07-12T02:47:44.632Z,60.30
2017-07-12T02:50:12.878Z,60.30
2017-07-12T02:52:41.914Z,60.80
2017-07-12T02:55:10.235Z,60.80
2017-07-12T02:57:38.462Z,60.70
2017-07-12T03:00:06.732Z,60.90
2017-07-12T03:02:35.012Z,61.10
2017-07-12T03:05:03.292Z,61.10
2017-07-12T03:07:31.565Z,61.30
2017-07-12T03:09:59.814Z,61.60
2017-07-12T03:12:28.849Z,61.70
2017-07-12T03:14:57.092Z,61.70
2017-07-12T03:17:25.353Z,61.70
2017-07-12T03:19:54.383Z,61.60
2017-07-12T03:22:22.653Z,61.60
2017-07-12T03:24:50.997Z,61.70
2017-07-12T03:27:19.181Z,61.80
2017-07-12T03:29:47.470Z,61.90
2017-07-12T03:32:15.706Z,61.90
2017-07-12T03:34:43.990Z,61.80
2017-07-12T03:37:12.233Z,61.80
2017-07-12T03:39:52.344Z,61.80
2017-07-12T03:42:20.604Z,61.80
2017-07-12T03:44:48.875Z,61.80
2017-07-12T03:47:17.104Z,61.70
2017-07-12T03:49:45.353Z,61.80
2017-07-12T03:52:13.624Z,61.80
2017-07-12T03:54:41.897Z,61.80
2017-07-12T03:57:10.196Z,62.20
2017-07-12T03:59:38.519Z,61.80
2017-07-12T04:02:06.793Z,62.10
2017-07-12T04:04:35.065Z,62.40
2017-07-12T04:07:03.356Z,62.60
2017-07-12T04:09:31.589Z,62.40
2017-07-12T04:11:59.840Z,62.30
2017-07-12T04:14:28.127Z,62.50
2017-07-12T04:16:56.393Z,62.30
2017-07-12T04:19:24.685Z,62.50
2017-07-12T04:21:53.014Z,62.70
2017-07-12T04:24:21.235Z,62.60
2017-07-12T04:26:49.528Z,62.30
2017-07-12T04:29:17.765Z,62.60
2017-07-12T04:31:46.037Z,62.80
2017-07-12T04:34:15.045Z,63.30
2017-07-12T04:36:43.400Z,63.30
2017-07-12T04:39:12.417Z,63.60
2017-07-12T04:41:40.668Z,63.60
2017-07-12T04:44:09.707Z,63.50
2017-07-12T04:46:37.986Z,64.20
2017-07-12T04:49:06.261Z,63.30
2017-07-12T04:51:34.521Z,63.20
2017-07-12T04:54:02.788Z,63.00
2017-07-12T04:56:31.084Z,62.90
2017-07-12T04:58:59.382Z,62.80
2017-07-12T05:01:27.648Z,62.90
2017-07-12T05:03:55.915Z,63.10
2017-07-12T05:06:24.264Z,62.90
2017-07-12T05:08:54.305Z,63.40
2017-07-12T05:11:22.567Z,63.30
2017-07-12T05:13:50.839Z,63.40
2017-07-12T05:16:19.136Z,63.60
2017-07-12T05:18:47.422Z,63.60
2017-07-12T05:21:15.664Z,63.80
2017-07-12T05:23:43.981Z,63.90
2017-07-12T05:26:12.245Z,64.00
2017-07-12T05:28:40.532Z,63.90
2017-07-12T05:31:08.851Z,64.00
2017-07-12T05:33:37.133Z,63.50
2017-07-12T05:36:05.381Z,63.80
2017-07-12T05:38:33.708Z,64.10
2017-07-12T05:41:01.976Z,64.40
2017-07-12T05:43:31.155Z,64.60
2017-07-12T05:45:59.389Z,64.40
2017-07-12T05:48:27.617Z,64.60
2017-07-12T05:50:55.952Z,64.50
2017-07-12T05:53:24.209Z,64.80
2017-07-12T05:55:53.139Z,64.80
2017-07-12T05:58:21.405Z,64.30
2017-07-12T06:00:49.701Z,64.10
2017-07-12T06:03:18.636Z,64.30
2017-07-12T06:05:46.948Z,64.80
2017-07-12T06:08:15.232Z,65.10
2017-07-12T06:10:43.505Z,65.10
2017-07-12T06:13:11.801Z,65.10
2017-07-12T06:15:40.065Z,65.50
2017-07-12T06:18:08.320Z,65.40
2017-07-12T06:20:36.593Z,66.00
2017-07-12T06:23:04.956Z,66.00
2017-07-12T06:25:33.251Z,65.70
2017-07-12T06:28:01.533Z,65.60
2017-07-12T06:30:29.826Z,65.80
2017-07-12T06:32:58.200Z,66.10
2017-07-12T06:35:26.438Z,66.10
2017-07-12T06:37:54.682Z,65.80
2017-07-12T06:40:23.869Z,66.00
2017-07-12T06:42:52.165Z,66.10
2017-07-12T06:45:20.416Z,65.90
2017-07-12T06:47:48.714Z,66.80
2017-07-12T06:50:18.973Z,65.70
2017-07-12T06:52:47.665Z,65.70
2017-07-12T06:55:16.825Z,66.10
2017-07-12T06:57:45.161Z,66.10
2017-07-12T07:00:13.429Z,66.00
2017-07-12T07:02:41.699Z,66.10
2017-07-12T07:05:09.982Z,66.10
2017-07-12T07:07:38.290Z,66.00
2017-07-12T07:10:06.528Z,66.10
2017-07-12T07:12:34.769Z,65.90
2017-07-12T07:15:03.044Z,66.20
2017-07-12T07:17:31.337Z,66.20
2017-07-12T07:20:00.533Z,66.20
2017-07-12T07:22:28.806Z,66.20
2017-07-12T07:24:57.358Z,65.90
2017-07-12T07:27:25.653Z,66.10
2017-07-12T07:29:53.924Z,66.10
2017-07-12T07:32:22.186Z,66.10
2017-07-12T07:34:51.260Z,66.10
2017-07-12T07:37:19.651Z,65.70
2017-07-12T07:39:47.891Z,66.30
2017-07-12T07:42:16.199Z,66.10
2017-07-12T07:44:44.501Z,66.20
2017-07-12T07:47:13.518Z,66.10
2017-07-12T07:49:41.809Z,66.10
2017-07-12T07:52:10.057Z,66.00
2017-07-12T07:54:38.345Z,65.70
2017-07-12T07:57:06.681Z,66.00
2017-07-12T07:59:34.956Z,65.90
2017-07-12T08:02:03.414Z,65.90
2017-07-12T08:04:32.535Z,65.90
2017-07-12T08:07:01.664Z,66.00
2017-07-12T08:09:30.728Z,65.90
2017-07-12T08:11:58.989Z,65.90
2017-07-12T08:14:27.405Z,66.00
2017-07-12T08:16:55.657Z,65.90
2017-07-12T08:19:23.970Z,65.70
2017-07-12T08:21:52.309Z,66.50
2017-07-12T08:24:20.627Z,66.50
2017-07-12T08:26:49.675Z,66.30
2017-07-12T08:29:18.923Z,66.40
2017-07-12T08:31:47.950Z,67.30
2017-07-12T08:34:16.234Z,66.60
2017-07-12T08:36:44.581Z,66.80
2017-07-12T08:39:13.592Z,66.80
2017-07-12T08:41:41.928Z,66.80
2017-07-12T08:44:10.170Z,67.30
2017-07-12T08:46:38.452Z,67.20
2017-07-12T08:49:06.741Z,67.20
2017-07-12T08:51:35.042Z,67.30
2017-07-12T08:54:04.079Z,67.50
2017-07-12T08:56:32.408Z,67.20
2017-07-12T08:59:02.320Z,68.20
2017-07-12T09:01:30.653Z,67.00
2017-07-12T09:03:59.768Z,67.60
2017-07-12T09:06:28.017Z,67.40
2017-07-12T09:08:56.740Z,67.70
2017-07-12T09:11:25.652Z,67.20
2017-07-12T09:13:53.926Z,67.10
2017-07-12T09:16:22.940Z,68.00
2017-07-12T09:18:51.214Z,67.40
2017-07-12T09:21:21.256Z,66.90
2017-07-12T09:23:49.598Z,66.90
2017-07-12T09:33:43.541Z,66.80
2017-07-12T09:36:12.557Z,66.70
2017-07-12T09:38:40.914Z,66.70
2017-07-12T09:41:09.302Z,66.80
2017-07-12T09:43:37.567Z,66.60
2017-07-12T09:46:05.983Z,66.80
2017-07-12T09:48:34.267Z,67.10
2017-07-12T09:51:02.530Z,66.80
2017-07-12T09:53:30.821Z,67.10
2017-07-12T09:55:59.066Z,67.30
2017-07-12T09:58:27.369Z,67.50
2017-07-12T10:00:55.688Z,66.50
2017-07-12T10:03:23.922Z,67.30
2017-07-12T10:05:52.218Z,67.00
2017-07-12T10:08:20.527Z,66.90
2017-07-12T10:10:49.575Z,67.60
2017-07-12T10:13:17.872Z,67.40
2017-07-12T10:15:46.125Z,67.70
2017-07-12T10:18:14.417Z,68.30
2017-07-12T10:20:42.736Z,68.40
2017-07-12T10:23:11.799Z,68.50
2017-07-12T10:25:40.138Z,68.50
2017-07-12T10:28:08.395Z,68.70
2017-07-12T10:30:36.732Z,68.20
2017-07-12T10:33:05.810Z,68.60
2017-07-12T10:35:34.091Z,68.60
2017-07-12T10:38:02.411Z,68.50
2017-07-12T10:40:30.701Z,68.80
2017-07-12T10:42:58.960Z,68.90
2017-07-12T10:45:27.288Z,68.70
2017-07-12T10:47:55.713Z,68.60
2017-07-12T10:50:23.957Z,69.10
2017-07-12T10:52:52.251Z,69.00
2017-07-12T10:55:21.330Z,68.80
2017-07-12T10:57:49.659Z,68.70
2017-07-12T11:00:22.561Z,69.00
2017-07-12T11:02:51.145Z,69.00
2017-07-12T11:05:19.587Z,69.00
2017-07-12T11:07:47.841Z,69.00
2017-07-12T11:10:16.156Z,68.70
2017-07-12T11:12:48.545Z,69.00
2017-07-12T11:15:16.868Z,69.10
2017-07-12T11:17:45.169Z,69.00
2017-07-12T11:20:13.462Z,69.20
2017-07-12T11:22:41.758Z,68.60
2017-07-12T11:25:10.097Z,69.30
2017-07-12T11:27:39.261Z,69.60
2017-07-12T11:30:07.537Z,69.70
2017-07-12T11:32:35.818Z,69.80
2017-07-12T11:35:04.086Z,69.80
2017-07-12T11:37:33.054Z,69.70
2017-07-12T11:40:01.331Z,69.50
2017-07-12T11:42:29.584Z,69.60
2017-07-12T11:44:57.917Z,69.80
2017-07-12T11:47:26.271Z,69.40
2017-07-12T11:49:54.593Z,69.80
2017-07-12T11:52:23.793Z,70.90
2017-07-12T11:54:52.159Z,69.90
2017-07-12T11:57:20.503Z,69.90
2017-07-12T11:59:48.878Z,69.90
2017-07-12T12:02:17.239Z,70.00
2017-07-12T12:04:45.507Z,69.90
2017-07-12T12:07:13.842Z,69.90
2017-07-12T12:09:42.194Z,69.50
2017-07-12T12:12:10.455Z,69.50
2017-07-12T12:14:39.697Z,69.50
2017-07-12T12:17:08.231Z,69.60
2017-07-12T12:19:36.768Z,69.30
2017-07-12T12:22:05.154Z,69.40
2017-07-12T12:24:34.202Z,70.40
2017-07-12T12:27:02.611Z,69.80
2017-07-12T12:29:31.014Z,69.40
2017-07-12T12:31:59.306Z,69.00
2017-07-12T12:34:27.573Z,68.10
2017-07-12T12:36:56.774Z,71.10
2017-07-12T12:39:25.054Z,70.90
2017-07-12T12:41:53.379Z,71.80
2017-07-12T12:44:21.626Z,72.50
2017-07-12T12:46:49.946Z,73.50
2017-07-12T12:49:18.229Z,73.00
2017-07-12T12:51:46.523Z,73.90
2017-07-12T12:54:15.691Z,74.40
2017-07-12T12:56:44.102Z,74.30
2017-07-12T12:59:13.137Z,74.80
2017-07-12T13:43:07.272Z,73.20
2017-07-12T13:45:36.545Z,72.60
2017-07-12T13:48:04.898Z,72.50
2017-07-12T13:50:33.373Z,72.50
2017-07-12T13:53:01.716Z,72.10
2017-07-12T13:55:30.053Z,72.20
2017-07-12T13:57:58.370Z,72.10
2017-07-12T14:00:26.675Z,71.90
2017-07-12T14:02:55.077Z,71.50
2017-07-12T14:05:23.462Z,71.60
2017-07-12T14:07:53.358Z,71.80
2017-07-12T14:10:22.926Z,71.50
2017-07-12T14:12:52.206Z,71.80
2017-07-12T14:15:21.542Z,71.70
2017-07-12T14:17:51.239Z,71.50
2017-07-12T14:20:21.027Z,72.00
2017-07-12T14:22:49.558Z,71.80
2017-07-12T14:25:17.854Z,71.50
2017-07-12T14:27:46.879Z,71.30
2017-07-12T14:30:15.769Z,71.40
2017-07-12T14:32:44.197Z,71.40
2017-07-12T14:35:12.513Z,71.40
2017-07-12T14:37:40.822Z,71.40
2017-07-12T14:40:09.335Z,71.20
2017-07-12T14:42:37.647Z,71.90
2017-07-12T14:45:05.985Z,72.20
2017-07-12T14:47:34.296Z,71.00
2017-07-12T14:50:04.108Z,70.70
2017-07-12T14:52:33.149Z,71.10
2017-07-12T14:55:02.259Z,70.90
2017-07-12T14:57:31.341Z,70.60
2017-07-12T14:59:59.683Z,70.50
2017-07-12T15:02:28.128Z,70.30
2017-07-12T15:04:56.538Z,70.30
2017-07-12T15:07:25.646Z,71.10
2017-07-12T15:09:54.017Z,71.30
2017-07-12T15:12:22.303Z,71.80
2017-07-12T15:14:50.615Z,71.30
2017-07-12T15:17:18.968Z,71.20
2017-07-12T15:19:47.289Z,71.60
2017-07-12T15:22:15.589Z,72.00
2017-07-12T15:24:44.742Z,71.80
2017-07-12T15:27:12.974Z,71.60
2017-07-12T15:29:41.265Z,71.20
2017-07-12T15:32:09.641Z,72.10
2017-07-12T15:34:37.954Z,71.80
2017-07-12T15:37:06.363Z,71.30
2017-07-12T15:39:34.600Z,71.50
2017-07-12T15:42:02.862Z,71.20
2017-07-12T15:44:31.192Z,70.50
2017-07-12T15:47:00.270Z,70.50
2017-07-12T15:49:28.558Z,70.70
2017-07-12T15:51:56.938Z,71.10
2017-07-12T15:54:25.978Z,70.30
2017-07-12T15:56:54.310Z,70.30
2017-07-12T15:59:22.668Z,69.50
2017-07-12T16:01:50.976Z,70.70
2017-07-12T16:04:20.082Z,69.60
2017-07-12T16:06:48.425Z,69.60
2017-07-12T16:09:18.440Z,68.90
2017-07-12T16:11:46.752Z,69.10
2017-07-12T16:14:15.147Z,69.00
2017-07-12T16:16:43.579Z,68.50
2017-07-12T16:19:11.957Z,68.10
2017-07-12T16:21:40.329Z,68.10
2017-07-12T16:24:08.782Z,67.90
2017-07-12T16:27:07.802Z,67.60
2017-07-12T16:29:36.222Z,67.70
2017-07-12T16:32:04.585Z,68.00
2017-07-12T16:34:33.028Z,68.60
2017-07-12T16:37:01.447Z,67.90
2017-07-12T16:39:30.640Z,67.40
2017-07-12T16:41:59.870Z,67.60
2017-07-12T16:44:28.315Z,67.80
2017-07-12T16:46:56.584Z,67.30
2017-07-12T16:49:25.053Z,67.20
2017-07-12T16:51:53.354Z,67.00
2017-07-12T16:54:21.779Z,66.90
2017-07-12T16:56:50.057Z,66.20
2017-07-12T16:59:18.360Z,66.10
2017-07-12T17:01:46.772Z,65.80
2017-07-12T17:04:15.242Z,66.00
2017-07-12T17:06:43.527Z,65.50
2017-07-12T17:09:11.803Z,64.90
2017-07-12T17:11:40.931Z,64.70
2017-07-12T17:14:09.547Z,64.70
2017-07-12T17:16:37.928Z,64.60
2017-07-12T17:19:06.329Z,64.80
2017-07-12T17:21:35.403Z,63.70
2017-07-12T17:24:05.497Z,63.70
2017-07-12T17:26:33.827Z,63.20
2017-07-12T17:29:02.940Z,62.80
2017-07-12T17:31:32.082Z,61.20
2017-07-12T17:34:00.403Z,61.40
2017-07-12T17:36:37.581Z,60.80
2017-07-12T17:39:08.118Z,61.00
2017-07-12T17:41:38.456Z,60.90
2017-07-12T17:44:08.041Z,60.70
2017-07-12T17:46:36.454Z,61.10
2017-07-12T17:49:04.760Z,60.90
2017-07-12T17:51:33.163Z,60.70
2017-07-12T17:54:01.466Z,60.60
2017-07-12T17:56:30.677Z,60.40
2017-07-12T17:59:00.944Z,60.30
2017-07-12T18:01:29.906Z,60.60
2017-07-12T18:03:58.288Z,60.50
2017-07-12T18:06:26.679Z,59.10
2017-07-12T18:08:58.550Z,59.10
2017-07-12T18:11:27.011Z,59.40
2017-07-12T18:13:55.426Z,59.20
2017-07-12T18:16:23.769Z,58.90
2017-07-12T18:18:52.077Z,58.60
2017-07-12T18:21:20.496Z,59.00
2017-07-12T18:23:49.401Z,58.70
2017-07-12T18:26:17.865Z,58.80
2017-07-12T18:28:46.209Z,58.60
2017-07-12T18:31:14.769Z,58.50
2017-07-12T18:33:43.439Z,58.10
2017-07-12T18:36:11.744Z,57.80
2017-07-12T18:38:40.392Z,57.30
2017-07-12T18:41:08.799Z,57.40
2017-07-12T18:43:37.175Z,57.40
2017-07-12T18:46:05.570Z,57.20
2017-07-12T18:48:33.957Z,57.60
2017-07-12T18:51:02.335Z,57.00
2017-07-12T18:53:30.810Z,57.50
2017-07-12T18:55:59.257Z,56.30
2017-07-12T18:58:27.763Z,56.60
2017-07-12T19:00:56.246Z,56.90
2017-07-12T19:03:24.641Z,56.90
2017-07-12T19:05:53.072Z,56.70
2017-07-12T19:08:21.626Z,56.40
2017-07-12T19:10:50.125Z,56.10
2017-07-12T19:13:19.209Z,55.50
2017-07-12T19:15:47.692Z,55.50
2017-07-12T19:18:16.078Z,55.60
2017-07-12T19:20:44.487Z,55.40
2017-07-12T19:23:13.794Z,55.40
2017-07-12T19:25:42.278Z,55.60
2017-07-12T19:28:10.638Z,55.40
2017-07-12T19:30:39.088Z,55.80
2017-07-12T19:33:07.445Z,55.10
2017-07-12T19:35:36.607Z,54.40
2017-07-12T19:38:05.103Z,54.40
2017-07-12T19:40:33.620Z,54.20
2017-07-12T19:43:02.172Z,54.00
2017-07-12T19:45:30.696Z,54.50
2017-07-12T19:47:59.077Z,54.20
2017-07-12T19:50:27.454Z,54.40
2017-07-12T19:52:55.893Z,54.10
2017-07-12T19:55:25.130Z,54.70
2017-07-12T19:57:53.536Z,54.30
2017-07-12T20:00:21.931Z,54.20
2017-07-12T20:02:50.662Z,54.20
2017-07-12T20:05:19.047Z,54.10
2017-07-12T20:07:47.645Z,54.00
2017-07-12T20:10:16.858Z,54.10
2017-07-12T20:12:45.250Z,54.10
2017-07-12T20:15:14.008Z,54.30
2017-07-12T20:17:42.496Z,54.00
2017-07-12T20:20:11.625Z,54.70
2017-07-12T20:22:40.060Z,54.70
2017-07-12T20:25:12.112Z,54.90
2017-07-12T20:27:41.973Z,54.70
2017-07-12T20:30:12.383Z,54.20
2017-07-12T20:32:43.021Z,54.20
2017-07-12T20:35:14.546Z,54.10
2017-07-12T20:37:45.764Z,54.40
2017-07-12T20:40:16.676Z,54.30
2017-07-12T20:42:45.782Z,54.10
2017-07-12T20:45:14.463Z,54.40
2017-07-12T20:47:43.615Z,54.30
2017-07-12T20:50:15.030Z,54.00
2017-07-12T20:52:43.857Z,54.50
2017-07-12T20:55:13.623Z,54.30
2017-07-12T20:57:44.107Z,54.20
2017-07-12T21:00:15.651Z,54.10
2017-07-12T21:02:44.617Z,54.20
2017-07-12T21:05:13.398Z,54.00
2017-07-12T21:07:43.743Z,54.00
2017-07-12T21:10:12.565Z,54.00
2017-07-12T21:12:41.759Z,54.10
2017-07-12T21:15:10.170Z,53.90
2017-07-12T21:17:38.572Z,53.80
2017-07-12T21:20:06.900Z,54.00
2017-07-12T21:22:35.631Z,54.00
2017-07-12T21:25:04.138Z,54.20
2017-07-12T21:27:33.417Z,54.20
2017-07-12T21:30:02.056Z,54.00
2017-07-12T21:32:30.423Z,54.30
2017-07-12T21:34:59.681Z,54.50
2017-07-12T21:37:28.919Z,54.00
2017-07-12T21:39:57.199Z,54.40
2017-07-12T21:42:25.641Z,54.50
2017-07-12T21:44:54.732Z,54.50
2017-07-12T21:47:23.034Z,54.60
2017-07-12T21:49:51.351Z,54.50
2017-07-12T21:52:19.763Z,54.50
2017-07-12T21:55:05.869Z,54.40
2017-07-12T21:57:57.855Z,54.50
2017-07-12T22:00:49.936Z,54.30
2017-07-12T22:03:42.162Z,54.20
2017-07-12T22:06:34.202Z,54.30
2017-07-12T22:09:26.639Z,54.50
2017-07-12T22:12:18.896Z,55.00
2017-07-12T22:15:10.801Z,55.10
2017-07-12T22:18:02.868Z,54.90
2017-07-12T22:20:55.786Z,55.20
2017-07-12T22:23:47.684Z,54.50
2017-07-12T22:26:39.770Z,55.40
2017-07-12T22:29:32.585Z,55.50
2017-07-12T22:32:24.891Z,55.40
2017-07-12T22:35:17.192Z,55.90
2017-07-12T22:37:57.196Z,55.90
2017-07-12T22:40:31.171Z,55.80
2017-07-12T22:43:05.820Z,56.00
2017-07-12T22:45:34.099Z,56.10
2017-07-12T22:48:02.368Z,56.10
2017-07-12T22:50:30.670Z,56.00
2017-07-12T22:52:58.934Z,56.20
2017-07-12T22:55:27.249Z,56.50
2017-07-12T22:57:55.517Z,56.40
2017-07-12T23:00:23.943Z,56.40
2017-07-12T23:02:52.276Z,56.50
2017-07-12T23:05:21.578Z,56.30
2017-07-12T23:07:49.863Z,56.80
2017-07-12T23:10:18.097Z,56.80
2017-07-12T23:12:46.385Z,56.90
2017-07-12T23:15:14.661Z,56.90
2017-07-12T23:17:42.988Z,57.20
2017-07-12T23:20:11.389Z,57.30
2017-07-12T23:22:39.651Z,57.20
2017-07-12T23:25:07.922Z,57.20
2017-07-12T23:27:36.187Z,57.40
2017-07-12T23:30:04.471Z,57.30
2017-07-12T23:32:33.555Z,57.40
2017-07-12T23:35:01.824Z,57.30
2017-07-12T23:37:30.237Z,57.20
2017-07-12T23:39:59.356Z,57.20
2017-07-12T23:42:28.380Z,57.30
2017-07-12T23:44:56.636Z,57.30
2017-07-12T23:47:24.887Z,57.30
2017-07-12T23:49:53.919Z,57.80
2017-07-12T23:52:22.170Z,57.20
2017-07-12T23:54:51.208Z,57.60
2017-07-12T23:57:19.578Z,57.50
2017-07-12T23:59:47.833Z,57.40
